Terminal Aerodrome Forecast
Issued by NWS La Crosse, WI

Home | Current Version | Previous Version | Text Only | Print | Product List | Glossary On
Versions: 1 2 3 4 5 6 7 8 9 10 11 12 13 14 15 16 17 18 19 20 21 22
000
FTUS43 KARX 280939 AAA
TAFRST
TAF AMD
KRST 280939Z 2810/2906 02006KT 1SM -SHRA BR BKN010
      TEMPO 2810/2812 1/2SM -SHRA FG OVC002
     FM281400 15008KT P6SM BKN040
     FM281800 19010KT P6SM VCTS BKN035CB
     FM290300 21005KT P6SM BKN050=

USA.gov is the U.S. government's official web portal to all federal, state and local government web resources and services.